createdAt,value
2022-12-18T00:00:58.120Z,2.78
2022-12-18T00:06:18.512Z,3.23
2022-12-18T00:11:23.839Z,0.81
2022-12-18T00:16:29.081Z,-0.59
2022-12-18T00:21:33.489Z,-1.55
2022-12-18T00:26:38.341Z,-2.05
2022-12-18T00:31:42.789Z,1.04
2022-12-18T00:36:48.583Z,3.54
2022-12-18T00:42:09.573Z,1.53
2022-12-18T00:47:12.281Z,-0.72
2022-12-18T00:52:14.965Z,-1.85
2022-12-18T00:57:17.675Z,-2.40
2022-12-18T01:02:20.647Z,0.62
2022-12-18T01:07:23.683Z,3.64
2022-12-18T01:12:26.441Z,2.91
2022-12-18T01:17:29.246Z,0.32
2022-12-18T01:22:32.009Z,-1.15
2022-12-18T01:27:35.099Z,-1.94
2022-12-18T01:32:37.888Z,0.69
2022-12-18T01:37:40.634Z,3.33
2022-12-18T01:42:43.320Z,2.69
2022-12-18T01:47:49.793Z,0.05
2022-12-18T01:53:01.080Z,-1.54
2022-12-18T01:58:04.807Z,-2.02
2022-12-18T02:03:07.558Z,1.27
2022-12-18T02:08:20.416Z,2.38
2022-12-18T02:13:39.560Z,-0.20
2022-12-18T02:18:48.335Z,-1.88
2022-12-18T02:23:58.139Z,-2.91
2022-12-18T02:29:11.371Z,-1.58
2022-12-18T02:34:15.323Z,1.99
2022-12-18T02:39:18.899Z,2.55
2022-12-18T02:44:21.617Z,-0.39
2022-12-18T02:49:42.202Z,-2.23
2022-12-18T02:54:51.435Z,-3.14
2022-12-18T03:00:19.918Z,-0.01
2022-12-18T03:05:33.847Z,2.42
2022-12-18T03:10:46.553Z,0.17
2022-12-18T03:15:51.964Z,-2.02
2022-12-18T03:20:58.697Z,-3.19
2022-12-18T03:26:08.105Z,-3.16
2022-12-18T03:31:13.977Z,0.47
2022-12-18T03:36:16.786Z,1.57
2022-12-18T03:41:19.419Z,-0.97
2022-12-18T03:46:38.150Z,-2.68
2022-12-18T03:51:54.378Z,-1.18
2022-12-18T03:57:07.801Z,1.67
2022-12-18T04:02:11.394Z,-0.53
2022-12-18T04:07:15.061Z,-2.41
2022-12-18T04:12:17.758Z,-3.05
2022-12-18T04:17:20.996Z,0.18
2022-12-18T04:22:23.782Z,2.22
2022-12-18T04:27:26.467Z,0.11
2022-12-18T04:32:29.166Z,-2.08
2022-12-18T04:37:31.880Z,-3.27
2022-12-18T04:42:34.709Z,-3.88
2022-12-18T04:47:37.451Z,-0.54
2022-12-18T04:52:40.204Z,2.58
2022-12-18T04:57:42.935Z,1.67
2022-12-18T05:02:46.134Z,-0.87
2022-12-18T05:07:49.505Z,-2.23
2022-12-18T05:13:01.204Z,-3.09
2022-12-18T05:18:05.262Z,-3.71
2022-12-18T05:23:08.046Z,-2.15
2022-12-18T05:28:10.737Z,2.14
2022-12-18T05:33:13.546Z,3.45
2022-12-18T05:38:16.241Z,0.79
2022-12-18T05:43:21.614Z,-1.07
2022-12-18T05:48:24.989Z,-2.20
2022-12-18T05:53:27.721Z,-0.71
2022-12-18T05:58:31.492Z,3.32
2022-12-18T06:03:34.424Z,3.71
2022-12-18T06:08:41.470Z,0.96
2022-12-18T06:13:57.672Z,-0.74
2022-12-18T06:19:05.056Z,1.40
2022-12-18T06:24:08.081Z,3.57
2022-12-18T06:29:10.831Z,1.23
2022-12-18T06:34:13.582Z,-0.41
2022-12-18T06:39:16.263Z,-1.38
2022-12-18T06:44:19.185Z,-1.86
2022-12-18T06:49:24.154Z,1.39
2022-12-18T06:54:30.522Z,4.02
2022-12-18T06:59:33.323Z,4.06
2022-12-18T07:04:36.125Z,1.40
2022-12-18T07:09:38.812Z,0.36
2022-12-18T07:14:41.521Z,3.29
2022-12-18T07:19:44.363Z,2.41
2022-12-18T07:24:47.125Z,0.30
2022-12-18T07:29:50.030Z,0.67
2022-12-18T07:34:52.773Z,3.96
2022-12-18T07:39:55.634Z,4.03
2022-12-18T07:45:02.556Z,1.53
2022-12-18T07:50:06.521Z,-0.07
2022-12-18T07:55:09.669Z,0.60
2022-12-18T08:00:13.442Z,3.81
2022-12-18T08:05:16.197Z,3.83
2022-12-18T08:10:19.701Z,1.31
2022-12-18T08:15:22.712Z,0.34
2022-12-18T08:20:25.414Z,2.90
2022-12-18T08:25:28.165Z,1.89
2022-12-18T08:30:30.956Z,0.98
2022-12-18T08:35:42.473Z,4.24
2022-12-18T08:40:48.237Z,4.52
2022-12-18T08:45:51.454Z,1.82
2022-12-18T08:50:56.238Z,0.29
2022-12-18T08:55:59.052Z,1.87
2022-12-18T09:01:03.179Z,3.99
2022-12-18T09:06:07.312Z,1.69
2022-12-18T09:11:22.421Z,0.44
2022-12-18T09:16:31.699Z,3.34
2022-12-18T09:21:37.150Z,3.05
2022-12-18T09:26:40.641Z,0.75
2022-12-18T09:31:46.305Z,0.44
2022-12-18T09:36:49.422Z,3.76
2022-12-18T09:41:56.680Z,4.74
2022-12-18T09:46:59.374Z,2.22
2022-12-18T09:52:28.722Z,1.14
2022-12-18T09:57:35.576Z,3.65
2022-12-18T10:02:38.332Z,2.13
2022-12-18T10:08:00.575Z,1.78
2022-12-18T10:13:06.034Z,4.15
2022-12-18T10:18:50.135Z,1.90
2022-12-18T10:24:14.470Z,1.51
2022-12-18T10:29:17.994Z,2.79
2022-12-18T10:34:20.696Z,1.17
2022-12-18T10:39:26.624Z,1.55
2022-12-18T10:44:29.328Z,4.97
2022-12-18T10:49:36.227Z,3.92
2022-12-18T10:54:39.016Z,1.99
2022-12-18T10:59:56.518Z,3.10
2022-12-18T11:04:59.332Z,5.50
2022-12-18T11:10:02.663Z,4.05
2022-12-18T11:15:07.152Z,4.08
2022-12-18T11:20:42.685Z,6.18
2022-12-18T11:25:54.706Z,8.95
2022-12-18T11:31:20.616Z,8.21
2022-12-18T11:36:24.621Z,7.79
2022-12-18T11:41:57.493Z,7.87
2022-12-18T11:47:26.836Z,8.19
2022-12-18T11:52:39.841Z,8.57
2022-12-18T11:58:31.577Z,8.85
2022-12-18T12:03:52.458Z,9.00
2022-12-18T12:09:17.355Z,8.74
2022-12-18T12:14:33.452Z,8.70
2022-12-18T12:19:39.533Z,9.02
2022-12-18T12:24:44.938Z,9.22
2022-12-18T12:29:50.476Z,9.33
2022-12-18T12:35:17.325Z,9.03
2022-12-18T12:40:50.286Z,8.83
2022-12-18T12:45:50.222Z,8.20
2022-12-18T12:50:54.621Z,7.01
2022-12-18T12:55:58.532Z,5.79
2022-12-18T13:01:23.321Z,4.72
2022-12-18T13:07:02.611Z,3.43
2022-12-18T13:12:34.865Z,2.52
2022-12-18T13:17:38.230Z,1.86
2022-12-18T13:22:47.653Z,1.38
2022-12-18T13:28:15.780Z,0.99
2022-12-18T13:33:18.681Z,0.54
2022-12-18T13:38:31.904Z,0.17
2022-12-18T13:43:47.637Z,-0.06
2022-12-18T13:49:05.521Z,-0.37
2022-12-18T13:54:40.429Z,-0.69
2022-12-18T13:59:43.129Z,-1.16
2022-12-18T14:04:47.855Z,-0.46
2022-12-18T14:10:06.457Z,3.50
2022-12-18T14:15:32.392Z,3.76
2022-12-18T14:20:36.253Z,0.71
2022-12-18T14:25:38.906Z,-0.97
2022-12-18T14:30:43.808Z,-1.85
2022-12-18T14:36:01.686Z,-1.07
2022-12-18T14:41:07.817Z,1.07
2022-12-18T14:46:29.451Z,-0.92
2022-12-18T14:51:35.424Z,-2.21
2022-12-18T14:56:45.711Z,-0.62
2022-12-18T15:02:02.982Z,-0.19
2022-12-18T15:07:24.079Z,-1.92
2022-12-18T15:12:43.745Z,0.59
2022-12-18T15:17:46.486Z,0.30
2022-12-18T15:22:49.255Z,-1.46
2022-12-18T15:27:52.009Z,-1.75
2022-12-18T15:33:23.938Z,0.75
2022-12-18T15:38:27.746Z,-1.03
2022-12-18T15:43:37.681Z,-1.40
2022-12-18T15:48:55.503Z,1.51
2022-12-18T15:54:05.895Z,0.41
2022-12-18T15:59:17.419Z,-1.47
2022-12-18T16:04:22.245Z,-0.82
2022-12-18T16:09:26.601Z,1.48
2022-12-18T16:14:31.344Z,-0.21
2022-12-18T16:19:34.346Z,-1.75
2022-12-18T16:24:37.363Z,0.42
2022-12-18T16:29:40.230Z,0.85
2022-12-18T16:34:44.708Z,-1.43
2022-12-18T16:39:47.416Z,-0.62
2022-12-18T16:44:50.663Z,1.53
2022-12-18T16:49:54.214Z,-0.52
2022-12-18T16:54:57.373Z,-0.78
2022-12-18T17:00:05.120Z,0.38
2022-12-18T17:05:08.633Z,-1.38
2022-12-18T17:10:11.461Z,0.73
2022-12-18T17:15:14.263Z,2.98
2022-12-18T17:20:16.996Z,0.23
2022-12-18T17:25:22.427Z,-0.57
2022-12-18T17:30:26.863Z,1.07
2022-12-18T17:35:30.590Z,-1.17
2022-12-18T17:40:33.672Z,0.14
2022-12-18T17:45:40.397Z,0.69
2022-12-18T17:50:43.087Z,-1.21
2022-12-18T17:55:55.646Z,1.07
2022-12-18T18:00:58.548Z,-0.15
2022-12-18T18:06:02.569Z,-1.11
2022-12-18T18:11:34.947Z,0.63
2022-12-18T18:16:47.537Z,-1.25
2022-12-18T18:21:52.766Z,-1.37
2022-12-18T18:26:56.567Z,1.78
2022-12-18T18:31:59.948Z,1.30
2022-12-18T18:37:03.096Z,-1.07
2022-12-18T18:42:05.885Z,-2.40
2022-12-18T18:47:09.657Z,-1.03
2022-12-18T18:52:12.623Z,2.27
2022-12-18T18:57:20.961Z,0.63
2022-12-18T19:02:24.717Z,-1.41
2022-12-18T19:07:30.599Z,-2.51
2022-12-18T19:12:53.619Z,-3.30
2022-12-18T19:17:56.333Z,-3.93
2022-12-18T19:22:59.361Z,-3.10
2022-12-18T19:28:02.046Z,1.21
2022-12-18T19:33:33.981Z,1.59
2022-12-18T19:38:30.341Z,-1.14
2022-12-18T19:43:36.138Z,-2.55
2022-12-18T19:48:39.111Z,-3.46
2022-12-18T19:53:42.245Z,-4.06
2022-12-18T19:58:45.855Z,-4.47
2022-12-18T20:03:52.621Z,-1.41
2022-12-18T20:09:01.183Z,1.84
2022-12-18T20:14:05.143Z,3.28
2022-12-18T20:19:08.953Z,4.28
2022-12-18T20:24:13.013Z,5.03
2022-12-18T20:29:15.766Z,3.23
2022-12-18T20:34:18.997Z,0.07
2022-12-18T20:39:22.277Z,-1.81
2022-12-18T20:44:26.137Z,-3.02
2022-12-18T20:49:29.648Z,-3.90
2022-12-18T20:54:32.425Z,-4.46
2022-12-18T20:59:35.170Z,-1.09
2022-12-18T21:04:37.844Z,2.05
2022-12-18T21:09:40.741Z,3.41
2022-12-18T21:14:44.789Z,4.33
2022-12-18T21:19:47.478Z,5.07
2022-12-18T21:24:52.182Z,3.26
2022-12-18T21:29:54.980Z,0.08
2022-12-18T21:34:57.829Z,-1.84
2022-12-18T21:40:00.530Z,-3.15
2022-12-18T21:45:03.841Z,-4.09
2022-12-18T21:50:07.165Z,-3.97
2022-12-18T21:55:10.631Z,0.21
2022-12-18T22:00:18.589Z,2.98
2022-12-18T22:05:23.447Z,4.14
2022-12-18T22:10:26.149Z,4.86
2022-12-18T22:15:28.863Z,4.22
2022-12-18T22:20:31.846Z,0.92
2022-12-18T22:25:36.492Z,-1.26
2022-12-18T22:30:42.812Z,-2.84
2022-12-18T22:35:45.639Z,-4.12
2022-12-18T22:40:48.853Z,-3.40
2022-12-18T22:45:51.883Z,0.64
2022-12-18T22:50:58.504Z,2.95
2022-12-18T22:56:02.515Z,4.28
2022-12-18T23:01:06.233Z,5.05
2022-12-18T23:06:09.553Z,2.62
2022-12-18T23:11:13.668Z,-0.55
2022-12-18T23:16:20.297Z,-2.40
2022-12-18T23:21:24.304Z,-3.71
2022-12-18T23:26:28.661Z,-4.23
2022-12-18T23:31:37.526Z,-0.40
2022-12-18T23:36:45.427Z,1.88
2022-12-18T23:41:49.547Z,3.11
2022-12-18T23:46:53.025Z,4.47
2022-12-18T23:51:56.136Z,5.02
2022-12-18T23:56:59.073Z,4.11
